aviador You're here:

KJXN Decoded Metar

JACKSON/REYNOLDS in MI, USA
Report Time2017-06-29 11:56:00
UTC Time2017-06-29 12:27:51
Flight Rules vfr VFR
Wind210° at 16 Gusting to 20 kt
W.Decomp.*RWY 24: 14.5 kt HW 6.8 kt LCW
RWY 14: 4.1 kt HW 15.5 kt RCW
W.Rank210° ranks 6
Current wind is above 210° avg. (8.3)
Visibility9999 m
Phenomena:N/A
Clouds:N/A
Expected CloudBase > 2,800 ft AGL from Temp-Dew spread
CeilingNone
Temp21°C (ISA +8)
Dew Point14°C (64% RH)
AAT16.5°C
QNH1010 hPa
Density Alt2,251 ft
Elevation1,001 ft
Report Wrong Elevation
Raw Report
KJXN 291156Z 21016G20KT 10SM CLR 21/14 A2982 RMK AO2 SLP091 60000
T02110144 10222 20183 56016=

Extra information for KJXN:More info

Metar Taf Metar & Taf Last 4 Metars F.Rules Stats Wind Profile Meteogram Temp Stats Airport Information Weather charts Add Link Nearby VenuesMetar ALERT Operation Metar Decoded Social comments

AIRNAV info for KJXN